North Manheim, Pennsylvania
Current Conditions -  °F | °C
As of 9:58 AM on Thursday 23 Oct 2014 (Local Time) from KMUI Reporting Station
Overcast Overcast  
Wind Chill: 53°   Ceiling: 2600
Heat Index: 53°   Visibility: 10mi
Dew Point: 46°   Wind: 15mph
Humidity: 77%   Direction: 330°NNW
Pressure: 29.86"   Gusts: 30mph
Location:  40.6882°N, 76.264°W
Report Text: KMUI 231358Z AUTO 33013G26KT 10SM OVC026 12/08 A2986 RMK AO2 SLP115 T01180079 $
Loading
Personal Weather Stations






























Interactive Weather Map
Tropical Storm Tracking
New forecast layout! Learn more

10-Day Weather Forecast

Advertisements
Track Severe Weather on mobile